Terminal Aerodrome Forecast
Issued by NWS

Home | Current Version | Previous Version | Text Only | Print | Product List | Glossary On
Versions: 1 2 3 4 5 6 7 8 9 10 11 12 13 14 15 16 17 18 19 20 21 22 23 24 25 26 27 28
000
FTUS41 KOKX 011435 AAB
TAFHPN
TAF AMD
KHPN 011435Z 0115/0212 22007KT P6SM SCT020 BKN050
      TEMPO 0115/0116 BKN020
     FM011700 24010G18KT P6SM BKN050
     FM020100 28005KT P6SM BKN050
     FM020700 32006KT P6SM SCT050 BKN250
      AMD NOT SKED=

USA.gov is the U.S. government's official web portal to all federal, state and local government web resources and services.